sensor_id;sensor_type;location;lat;lon;timestamp;pressure;altitude;pressure_sealevel;temperature;humidity
8360;BME280;4217;48.762;11.428;2022-07-17T00:01:28;98285.50;;;20.78;39.76
8360;BME280;4217;48.762;11.428;2022-07-17T00:11:30;98296.97;;;20.59;40.55
8360;BME280;4217;48.762;11.428;2022-07-17T00:21:33;98294.72;;;20.48;41.43
8360;BME280;4217;48.762;11.428;2022-07-17T00:31:35;98285.03;;;20.28;41.95
8360;BME280;4217;48.762;11.428;2022-07-17T00:41:37;98297.69;;;20.17;42.45
8360;BME280;4217;48.762;11.428;2022-07-17T00:51:38;98304.38;;;19.91;42.91
8360;BME280;4217;48.762;11.428;2022-07-17T01:01:40;98295.44;;;19.77;43.12
8360;BME280;4217;48.762;11.428;2022-07-17T01:11:41;98312.81;;;19.74;44.25
8360;BME280;4217;48.762;11.428;2022-07-17T01:21:45;98306.75;;;19.64;45.36
8360;BME280;4217;48.762;11.428;2022-07-17T01:31:47;98318.09;;;19.45;47.64
8360;BME280;4217;48.762;11.428;2022-07-17T01:41:50;98314.41;;;19.36;47.92
8360;BME280;4217;48.762;11.428;2022-07-17T01:51:51;98313.66;;;19.31;47.78
8360;BME280;4217;48.762;11.428;2022-07-17T02:01:53;98315.34;;;19.22;48.58
8360;BME280;4217;48.762;11.428;2022-07-17T02:11:54;98315.97;;;19.03;50.12
8360;BME280;4217;48.762;11.428;2022-07-17T02:21:56;98325.38;;;18.96;50.04
8360;BME280;4217;48.762;11.428;2022-07-17T02:31:58;98320.13;;;18.81;50.22
8360;BME280;4217;48.762;11.428;2022-07-17T02:41:59;98323.91;;;18.69;49.88
8360;BME280;4217;48.762;11.428;2022-07-17T02:52:01;98315.72;;;18.56;48.39
8360;BME280;4217;48.762;11.428;2022-07-17T03:02:03;98316.22;;;18.53;48.67
8360;BME280;4217;48.762;11.428;2022-07-17T03:12:05;98304.25;;;18.45;50.21
8360;BME280;4217;48.762;11.428;2022-07-17T03:22:07;98311.75;;;18.43;49.65
8360;BME280;4217;48.762;11.428;2022-07-17T03:32:09;98321.63;;;18.38;48.97
8360;BME280;4217;48.762;11.428;2022-07-17T03:42:12;98320.81;;;18.32;47.51
8360;BME280;4217;48.762;11.428;2022-07-17T03:52:13;98329.34;;;18.34;49.74
8360;BME280;4217;48.762;11.428;2022-07-17T04:02:15;98333.56;;;18.50;49.20
8360;BME280;4217;48.762;11.428;2022-07-17T04:12:16;98333.78;;;18.69;47.19
8360;BME280;4217;48.762;11.428;2022-07-17T04:22:18;98336.94;;;18.76;45.10
8360;BME280;4217;48.762;11.428;2022-07-17T04:32:20;98341.22;;;18.77;45.09
8360;BME280;4217;48.762;11.428;2022-07-17T04:42:21;98342.97;;;18.97;44.76
8360;BME280;4217;48.762;11.428;2022-07-17T04:52:23;98341.41;;;19.30;43.68
8360;BME280;4217;48.762;11.428;2022-07-17T05:02:24;98342.09;;;19.50;42.88
8360;BME280;4217;48.762;11.428;2022-07-17T05:12:26;98339.63;;;19.93;42.05
8360;BME280;4217;48.762;11.428;2022-07-17T05:22:28;98341.78;;;20.44;40.26
8360;BME280;4217;48.762;11.428;2022-07-17T05:32:29;98350.38;;;20.83;39.29
8360;BME280;4217;48.762;11.428;2022-07-17T05:42:31;98348.44;;;21.31;38.27
8360;BME280;4217;48.762;11.428;2022-07-17T05:52:36;98344.78;;;21.92;36.76
8360;BME280;4217;48.762;11.428;2022-07-17T06:02:38;98329.78;;;30.47;24.49
8360;BME280;4217;48.762;11.428;2022-07-17T06:12:39;98340.00;;;41.82;13.96
8360;BME280;4217;48.762;11.428;2022-07-17T06:22:41;98335.06;;;47.77;9.89
8360;BME280;4217;48.762;11.428;2022-07-17T06:32:44;98314.75;;;49.25;8.39
8360;BME280;4217;48.762;11.428;2022-07-17T06:42:45;98318.63;;;49.77;7.95
8360;BME280;4217;48.762;11.428;2022-07-17T06:52:47;98318.25;;;50.19;7.95
8360;BME280;4217;48.762;11.428;2022-07-17T07:02:49;98314.44;;;50.02;7.74
8360;BME280;4217;48.762;11.428;2022-07-17T07:12:50;98322.31;;;52.05;7.03
8360;BME280;4217;48.762;11.428;2022-07-17T07:22:52;98326.25;;;55.89;5.66
8360;BME280;4217;48.762;11.428;2022-07-17T07:32:57;98319.06;;;55.34;5.58
8360;BME280;4217;48.762;11.428;2022-07-17T07:42:59;98313.06;;;56.40;4.96
8360;BME280;4217;48.762;11.428;2022-07-17T07:53:00;98311.25;;;55.51;5.37
8360;BME280;4217;48.762;11.428;2022-07-17T08:03:03;98308.63;;;56.26;5.26
8360;BME280;4217;48.762;11.428;2022-07-17T08:13:04;98318.47;;;56.19;4.90
8360;BME280;4217;48.762;11.428;2022-07-17T08:23:07;98307.06;;;55.82;5.14
8360;BME280;4217;48.762;11.428;2022-07-17T08:33:09;98311.88;;;55.62;5.53
8360;BME280;4217;48.762;11.428;2022-07-17T08:43:11;98297.34;;;57.85;4.46
8360;BME280;4217;48.762;11.428;2022-07-17T08:53:13;98308.97;;;55.74;5.01
8360;BME280;4217;48.762;11.428;2022-07-17T09:03:15;98288.38;;;55.24;4.94
8360;BME280;4217;48.762;11.428;2022-07-17T09:13:19;98295.19;;;54.64;5.28
8360;BME280;4217;48.762;11.428;2022-07-17T09:23:26;98303.28;;;54.37;5.02
8360;BME280;4217;48.762;11.428;2022-07-17T09:33:28;98287.09;;;54.55;4.71
8360;BME280;4217;48.762;11.428;2022-07-17T09:43:44;98282.00;;;53.45;5.08
8360;BME280;4217;48.762;11.428;2022-07-17T09:53:48;98283.19;;;54.11;5.12
8360;BME280;4217;48.762;11.428;2022-07-17T10:03:51;98267.59;;;55.28;4.53
8360;BME280;4217;48.762;11.428;2022-07-17T10:14:00;98275.25;;;57.12;4.08
8360;BME280;4217;48.762;11.428;2022-07-17T10:34:06;98265.81;;;54.54;4.69
8360;BME280;4217;48.762;11.428;2022-07-17T10:44:07;98243.09;;;53.83;5.08
8360;BME280;4217;48.762;11.428;2022-07-17T10:54:11;98244.50;;;54.99;4.37
8360;BME280;4217;48.762;11.428;2022-07-17T11:04:12;98254.41;;;47.32;7.49
8360;BME280;4217;48.762;11.428;2022-07-17T11:14:18;98249.13;;;39.36;11.53
8360;BME280;4217;48.762;11.428;2022-07-17T11:24:21;98254.47;;;36.23;14.06
8360;BME280;4217;48.762;11.428;2022-07-17T11:34:26;98241.13;;;33.69;15.94
8360;BME280;4217;48.762;11.428;2022-07-17T11:44:32;98237.78;;;33.82;16.55
8360;BME280;4217;48.762;11.428;2022-07-17T11:54:54;98261.88;;;33.36;16.48
8360;BME280;4217;48.762;11.428;2022-07-17T12:05:01;98240.06;;;33.73;16.19
8360;BME280;4217;48.762;11.428;2022-07-17T12:15:04;98241.22;;;34.20;15.78
8360;BME280;4217;48.762;11.428;2022-07-17T12:25:09;98239.78;;;34.40;15.59
8360;BME280;4217;48.762;11.428;2022-07-17T12:35:11;98236.44;;;33.66;16.14
8360;BME280;4217;48.762;11.428;2022-07-17T12:45:12;98221.41;;;34.30;15.55
8360;BME280;4217;48.762;11.428;2022-07-17T12:55:14;98219.03;;;35.01;14.93
8360;BME280;4217;48.762;11.428;2022-07-17T13:05:15;98211.31;;;34.41;15.28
8360;BME280;4217;48.762;11.428;2022-07-17T13:15:17;98211.00;;;35.58;14.65
8360;BME280;4217;48.762;11.428;2022-07-17T13:25:28;98203.09;;;36.59;13.69
8360;BME280;4217;48.762;11.428;2022-07-17T13:35:30;98195.59;;;36.88;13.42
8360;BME280;4217;48.762;11.428;2022-07-17T13:45:32;98202.13;;;37.08;12.59
8360;BME280;4217;48.762;11.428;2022-07-17T13:55:34;98184.41;;;37.27;12.67
8360;BME280;4217;48.762;11.428;2022-07-17T14:05:44;98189.56;;;37.21;12.79
8360;BME280;4217;48.762;11.428;2022-07-17T14:15:46;98187.34;;;36.88;12.94
8360;BME280;4217;48.762;11.428;2022-07-17T14:25:47;98177.56;;;38.04;12.20
8360;BME280;4217;48.762;11.428;2022-07-17T14:35:50;98177.44;;;37.74;12.09
8360;BME280;4217;48.762;11.428;2022-07-17T14:45:52;98158.22;;;38.15;11.92
8360;BME280;4217;48.762;11.428;2022-07-17T14:55:54;98148.56;;;38.00;11.97
8360;BME280;4217;48.762;11.428;2022-07-17T15:05:57;98145.38;;;38.05;11.99
8360;BME280;4217;48.762;11.428;2022-07-17T15:15:59;98149.41;;;37.89;11.95
8360;BME280;4217;48.762;11.428;2022-07-17T15:26:00;98145.97;;;37.30;12.78
8360;BME280;4217;48.762;11.428;2022-07-17T15:36:02;98141.53;;;36.88;12.74
8360;BME280;4217;48.762;11.428;2022-07-17T15:46:03;98135.38;;;36.52;13.11
8360;BME280;4217;48.762;11.428;2022-07-17T15:56:06;98127.84;;;36.81;12.95
8360;BME280;4217;48.762;11.428;2022-07-17T16:06:08;98115.38;;;36.66;12.79
8360;BME280;4217;48.762;11.428;2022-07-17T16:16:10;98108.44;;;36.37;13.21
8360;BME280;4217;48.762;11.428;2022-07-17T16:26:14;98108.19;;;35.64;13.81
8360;BME280;4217;48.762;11.428;2022-07-17T16:36:16;98102.22;;;34.87;14.30
8360;BME280;4217;48.762;11.428;2022-07-17T16:46:18;98092.81;;;33.91;14.92
8360;BME280;4217;48.762;11.428;2022-07-17T16:56:20;98084.13;;;33.75;15.22
8360;BME280;4217;48.762;11.428;2022-07-17T17:06:22;98089.63;;;33.31;16.00
8360;BME280;4217;48.762;11.428;2022-07-17T17:16:23;98086.03;;;32.82;16.18
8360;BME280;4217;48.762;11.428;2022-07-17T17:26:25;98084.00;;;32.72;16.44
8360;BME280;4217;48.762;11.428;2022-07-17T17:36:27;98084.34;;;32.37;17.30
8360;BME280;4217;48.762;11.428;2022-07-17T17:46:35;98094.50;;;31.84;16.61
8360;BME280;4217;48.762;11.428;2022-07-17T17:56:36;98091.66;;;31.77;17.19
8360;BME280;4217;48.762;11.428;2022-07-17T18:06:38;98094.34;;;31.51;17.10
8360;BME280;4217;48.762;11.428;2022-07-17T18:16:41;98102.41;;;31.44;17.23
8360;BME280;4217;48.762;11.428;2022-07-17T18:26:42;98099.25;;;31.19;17.67
8360;BME280;4217;48.762;11.428;2022-07-17T18:36:44;98108.84;;;30.71;18.12
8360;BME280;4217;48.762;11.428;2022-07-17T18:46:46;98108.94;;;30.20;19.27
8360;BME280;4217;48.762;11.428;2022-07-17T18:56:48;98112.00;;;29.68;19.42
8360;BME280;4217;48.762;11.428;2022-07-17T19:06:49;98121.44;;;29.11;20.93
8360;BME280;4217;48.762;11.428;2022-07-17T19:16:51;98133.94;;;28.60;22.10
8360;BME280;4217;48.762;11.428;2022-07-17T19:26:53;98155.59;;;28.20;23.23
8360;BME280;4217;48.762;11.428;2022-07-17T19:36:55;98169.09;;;27.84;23.07
8360;BME280;4217;48.762;11.428;2022-07-17T19:46:58;98173.94;;;27.54;24.19
8360;BME280;4217;48.762;11.428;2022-07-17T19:56:59;98182.84;;;27.21;25.52
8360;BME280;4217;48.762;11.428;2022-07-17T20:07:01;98193.31;;;26.90;26.22
8360;BME280;4217;48.762;11.428;2022-07-17T20:17:03;98196.56;;;26.75;25.00
8360;BME280;4217;48.762;11.428;2022-07-17T20:27:05;98211.00;;;26.58;25.11
8360;BME280;4217;48.762;11.428;2022-07-17T20:37:07;98199.66;;;26.44;25.72
8360;BME280;4217;48.762;11.428;2022-07-17T20:47:09;98203.66;;;26.08;29.99
8360;BME280;4217;48.762;11.428;2022-07-17T20:57:11;98215.56;;;25.61;32.02
8360;BME280;4217;48.762;11.428;2022-07-17T21:07:12;98224.78;;;25.42;31.11
8360;BME280;4217;48.762;11.428;2022-07-17T21:17:14;98230.53;;;25.15;32.25
8360;BME280;4217;48.762;11.428;2022-07-17T21:27:18;98236.75;;;25.07;32.23
8360;BME280;4217;48.762;11.428;2022-07-17T21:37:19;98229.78;;;24.97;32.66
8360;BME280;4217;48.762;11.428;2022-07-17T21:47:21;98240.81;;;24.70;35.45
8360;BME280;4217;48.762;11.428;2022-07-17T21:57:23;98240.78;;;24.44;35.38
8360;BME280;4217;48.762;11.428;2022-07-17T22:07:25;98246.44;;;24.26;34.91
8360;BME280;4217;48.762;11.428;2022-07-17T22:17:27;98249.03;;;24.08;36.60
8360;BME280;4217;48.762;11.428;2022-07-17T22:27:29;98269.19;;;23.89;37.22
8360;BME280;4217;48.762;11.428;2022-07-17T22:37:31;98250.94;;;23.77;33.37
8360;BME280;4217;48.762;11.428;2022-07-17T22:47:32;98258.53;;;23.75;30.86
8360;BME280;4217;48.762;11.428;2022-07-17T22:57:34;98246.94;;;23.43;37.42
8360;BME280;4217;48.762;11.428;2022-07-17T23:07:36;98244.22;;;23.13;37.71
8360;BME280;4217;48.762;11.428;2022-07-17T23:17:38;98238.31;;;23.02;37.87
8360;BME280;4217;48.762;11.428;2022-07-17T23:27:39;98244.44;;;22.80;37.94
8360;BME280;4217;48.762;11.428;2022-07-17T23:37:41;98244.56;;;22.61;39.19
8360;BME280;4217;48.762;11.428;2022-07-17T23:47:44;98248.25;;;22.52;36.80
8360;BME280;4217;48.762;11.428;2022-07-17T23:57:45;98250.75;;;22.35;39.25
